Time;durP1;ratioP1;P1;durP2;ratioP2;P2;SDS_P1;SDS_P2;PMS_P1;PMS_P2;Temp;Humidity;BMP_temperature;BMP_pressure;BME280_temperature;BME280_humidity;BME280_pressure;Samples;Min_cycle;Max_cycle;Signal;HPM_P1;HPM_P2
2023/01/15 00:01:24;;;;;;;3.00;0.60;;;7.20;99.90;;;;;;5074894;28;20174;-49
2023/01/15 00:03:50;;;;;;;2.87;0.80;;;7.20;99.90;;;;;;5074521;28;20177;-48
2023/01/15 00:06:17;;;;;;;3.80;0.70;;;7.10;99.90;;;;;;5074771;28;20190;-48
2023/01/15 00:08:43;;;;;;;1.23;0.43;;;7.10;99.90;;;;;;5074722;28;20176;-49
2023/01/15 00:11:08;;;;;;;3.13;0.60;;;7.00;99.90;;;;;;5074359;28;20176;-50
2023/01/15 00:13:34;;;;;;;2.00;0.87;;;7.00;99.90;;;;;;5074765;28;20570;-48
2023/01/15 00:16:04;;;;;;;2.30;0.60;;;7.00;99.90;;;;;;5075221;28;20638;-49
2023/01/15 00:18:30;;;;;;;2.07;0.60;;;6.90;99.90;;;;;;5075677;28;20223;-49
2023/01/15 00:21:00;;;;;;;3.33;0.93;;;6.90;99.90;;;;;;5074193;28;20534;-50
2023/01/15 00:29:04;;;;;;;3.00;0.50;;;6.80;99.90;;;;;;5074335;28;20203;-49
2023/01/15 00:31:31;;;;;;;1.97;0.77;;;6.80;99.90;;;;;;5074076;28;20278;-49
2023/01/15 00:33:57;;;;;;;1.63;0.50;;;6.70;99.90;;;;;;5074154;28;20185;-51
2023/01/15 00:36:23;;;;;;;2.87;0.47;;;6.70;99.90;;;;;;5073788;28;20290;-50
2023/01/15 00:38:48;;;;;;;3.30;0.90;;;6.70;99.90;;;;;;5073834;28;20718;-51
2023/01/15 00:41:14;;;;;;;4.03;1.00;;;6.70;99.90;;;;;;5073724;28;20680;-50
2023/01/15 00:43:39;;;;;;;4.63;0.90;;;6.70;99.90;;;;;;5074085;28;20535;-51
2023/01/15 00:46:07;;;;;;;2.80;0.53;;;6.60;99.90;;;;;;5055753;28;20187;-51
2023/01/15 00:48:33;;;;;;;2.33;0.63;;;6.90;99.90;;;;;;5073933;28;20633;-50
2023/01/15 00:50:58;;;;;;;3.33;0.50;;;6.60;99.90;;;;;;5073516;28;20194;-51
2023/01/15 00:53:24;;;;;;;2.40;0.57;;;6.50;99.90;;;;;;5073615;28;20236;-48
2023/01/15 00:55:49;;;;;;;1.77;0.80;;;6.60;99.90;;;;;;5073545;28;20624;-52
2023/01/15 00:58:15;;;;;;;1.60;0.67;;;6.60;99.90;;;;;;5073809;28;20685;-50
2023/01/15 01:00:40;;;;;;;0.73;0.43;;;6.50;99.90;;;;;;5073488;28;20639;-50
2023/01/15 01:03:06;;;;;;;3.40;0.60;;;6.60;99.90;;;;;;5055445;28;20748;-51
2023/01/15 01:05:31;;;;;;;2.07;0.40;;;6.60;99.90;;;;;;5073455;28;20665;-52
2023/01/15 01:07:58;;;;;;;1.53;0.53;;;6.60;99.90;;;;;;5073490;28;20725;-50
2023/01/15 01:10:24;;;;;;;3.00;0.60;;;6.60;99.90;;;;;;5073411;28;20180;-51
2023/01/15 01:12:51;;;;;;;1.77;0.47;;;6.60;99.90;;;;;;5055669;28;20641;-50
2023/01/15 01:15:17;;;;;;;3.07;0.50;;;6.50;99.90;;;;;;5073247;28;20221;-52
2023/01/15 01:17:43;;;;;;;2.70;0.67;;;6.50;99.90;;;;;;5073998;28;20172;-50
2023/01/15 01:20:11;;;;;;;0.77;0.47;;;6.50;99.90;;;;;;5073633;28;20224;-51
2023/01/15 01:22:36;;;;;;;1.67;0.50;;;6.50;99.90;;;;;;5073234;28;20325;-50
2023/01/15 01:25:02;;;;;;;0.90;0.57;;;6.50;99.90;;;;;;5073358;28;20231;-52
2023/01/15 01:27:27;;;;;;;3.20;0.50;;;6.50;99.90;;;;;;5073403;28;20639;-50
2023/01/15 01:29:53;;;;;;;2.07;0.70;;;6.40;99.90;;;;;;5073548;28;20251;-50
2023/01/15 01:32:18;;;;;;;4.17;0.70;;;6.40;99.90;;;;;;5055238;28;20196;-51
2023/01/15 01:34:44;;;;;;;3.67;0.80;;;6.40;99.90;;;;;;5073204;28;20182;-51
2023/01/15 01:37:09;;;;;;;1.90;0.70;;;6.40;99.90;;;;;;5073118;28;20202;-50
2023/01/15 01:39:35;;;;;;;2.83;0.67;;;6.40;99.90;;;;;;5073171;28;20676;-51
2023/01/15 01:42:01;;;;;;;1.87;0.50;;;6.40;99.90;;;;;;5073029;28;20671;-50
2023/01/15 01:44:32;;;;;;;5.30;0.57;;;6.40;99.90;;;;;;5073384;28;20632;-52
2023/01/15 01:47:04;;;;;;;1.87;0.70;;;6.40;99.90;;;;;;5073362;28;20610;-49
2023/01/15 01:49:30;;;;;;;2.77;0.60;;;6.40;99.90;;;;;;5073426;28;20163;-50
2023/01/15 01:52:06;;;;;;;2.83;0.70;;;6.40;99.90;;;;;;5055041;28;20223;-51
2023/01/15 01:54:34;;;;;;;2.50;0.53;;;6.40;99.90;;;;;;5056081;28;20251;-51
2023/01/15 01:56:59;;;;;;;2.23;0.60;;;6.40;99.90;;;;;;5072918;28;20195;-50
2023/01/15 01:59:26;;;;;;;0.87;0.50;;;6.40;99.90;;;;;;5073265;28;20179;-52
2023/01/15 02:01:52;;;;;;;2.60;0.53;;;6.40;99.90;;;;;;5073164;28;20245;-50
2023/01/15 02:04:20;;;;;;;1.97;0.63;;;6.40;99.90;;;;;;5073319;28;20263;-51
2023/01/15 02:06:45;;;;;;;0.90;0.60;;;6.40;99.90;;;;;;5054988;28;20727;-50
2023/01/15 02:09:11;;;;;;;1.03;0.50;;;6.40;99.90;;;;;;5073525;28;20210;-49
2023/01/15 02:11:37;;;;;;;1.50;0.80;;;6.50;99.90;;;;;;5073542;28;20195;-52
2023/01/15 02:14:14;;;;;;;1.07;0.40;;;6.50;99.90;;;;;;5073209;28;20180;-49
2023/01/15 02:17:07;;;;;;;2.47;0.40;;;6.50;99.90;;;;;;5074467;28;20198;-51
2023/01/15 02:19:54;;;;;;;3.20;0.60;;;6.50;99.90;;;;;;5073984;28;20164;-50
2023/01/15 02:22:53;;;;;;;1.43;0.60;;;6.50;99.90;;;;;;5072850;28;20234;-50
2023/01/15 02:25:46;;;;;;;3.10;0.73;;;6.50;99.90;;;;;;5073114;28;20207;-50
2023/01/15 02:28:23;;;;;;;1.53;0.60;;;6.50;99.90;;;;;;5004818;28;20729;-51
2023/01/15 02:31:17;;;;;;;2.50;0.60;;;6.50;99.90;;;;;;5072935;28;20160;-49
2023/01/15 02:33:53;;;;;;;2.53;0.80;;;6.60;99.90;;;;;;5034424;28;20191;-49
2023/01/15 02:36:22;;;;;;;6.67;0.67;;;6.60;99.90;;;;;;5072747;28;20278;-49
2023/01/15 02:38:51;;;;;;;2.10;0.70;;;6.50;99.90;;;;;;5074580;28;20176;-49
2023/01/15 02:41:21;;;;;;;1.73;0.60;;;6.60;99.90;;;;;;5076669;28;20262;-51
2023/01/15 02:43:52;;;;;;;3.60;0.77;;;6.60;99.90;;;;;;5076335;28;20539;-51
2023/01/15 02:46:21;;;;;;;3.30;0.90;;;6.50;99.90;;;;;;5076065;28;20238;-51
2023/01/15 02:48:52;;;;;;;3.23;0.70;;;6.60;99.90;;;;;;5075995;28;20265;-51
2023/01/15 02:51:23;;;;;;;1.10;0.50;;;6.60;99.90;;;;;;5075968;28;20199;-51
2023/01/15 02:53:52;;;;;;;4.63;1.10;;;6.50;99.90;;;;;;5075897;28;20168;-50
2023/01/15 02:56:22;;;;;;;1.57;0.83;;;6.50;99.90;;;;;;5058042;28;20206;-52
2023/01/15 02:58:53;;;;;;;5.73;1.20;;;6.60;99.90;;;;;;5075859;28;20225;-51
2023/01/15 03:01:44;;;;;;;5.07;0.80;;;6.60;99.90;;;;;;5075989;28;20210;-51
2023/01/15 03:04:14;;;;;;;4.90;0.97;;;6.60;99.90;;;;;;5076087;28;20203;-50
2023/01/15 03:06:54;;;;;;;5.80;0.93;;;6.50;99.90;;;;;;5075916;28;20167;-50
2023/01/15 03:09:20;;;;;;;2.43;0.87;;;6.50;99.90;;;;;;5075920;28;20233;-50
2023/01/15 03:12:01;;;;;;;2.63;0.60;;;6.60;99.90;;;;;;5076159;28;20290;-50
2023/01/15 03:14:43;;;;;;;3.53;0.70;;;6.50;99.90;;;;;;5075918;28;20531;-51
2023/01/15 03:17:18;;;;;;;4.47;1.07;;;6.50;99.90;;;;;;5075440;28;20195;-51
2023/01/15 03:20:15;;;;;;;5.77;1.13;;;6.50;99.90;;;;;;5075773;28;20192;-52
2023/01/15 03:22:44;;;;;;;5.87;1.00;;;6.50;99.90;;;;;;5065836;28;20211;-51
2023/01/15 03:25:22;;;;;;;6.67;1.10;;;6.50;99.90;;;;;;5075506;28;20271;-50
2023/01/15 03:27:51;;;;;;;4.20;1.10;;;6.50;99.90;;;;;;5077227;28;20520;-50
2023/01/15 03:30:20;;;;;;;2.63;0.70;;;6.50;99.90;;;;;;5077004;28;20222;-50
2023/01/15 03:32:46;;;;;;;2.90;0.70;;;6.50;99.90;;;;;;5075571;28;20191;-44
2023/01/15 03:35:45;;;;;;;2.70;0.70;;;6.50;99.90;;;;;;5075275;28;20640;-44
2023/01/15 03:38:13;;;;;;;1.63;0.80;;;6.50;99.90;;;;;;5075261;28;20258;-43
2023/01/15 03:40:51;;;;;;;2.47;0.60;;;6.50;99.90;;;;;;5075444;28;20239;-44
2023/01/15 03:43:39;;;;;;;5.90;0.80;;;6.50;99.90;;;;;;5075408;28;20191;-45
2023/01/15 03:46:19;;;;;;;1.77;0.60;;;6.50;99.90;;;;;;5075280;28;20160;-43
2023/01/15 03:49:01;;;;;;;5.23;1.00;;;6.50;99.90;;;;;;5075226;28;20167;-45
2023/01/15 03:51:39;;;;;;;2.83;0.67;;;6.50;99.90;;;;;;5074063;28;20219;-45
2023/01/15 03:54:16;;;;;;;4.50;0.67;;;6.40;99.90;;;;;;5056940;28;20210;-44
2023/01/15 03:56:57;;;;;;;4.47;0.80;;;6.40;99.90;;;;;;5074962;28;20195;-42
2023/01/15 03:59:35;;;;;;;5.00;0.80;;;6.40;99.90;;;;;;5075152;28;20175;-43
2023/01/15 04:02:04;;;;;;;3.40;0.90;;;6.40;99.90;;;;;;5074541;28;20195;-46
2023/01/15 04:04:30;;;;;;;4.20;0.80;;;6.40;99.90;;;;;;5074564;28;20236;-45
2023/01/15 04:06:57;;;;;;;4.77;1.20;;;6.40;99.90;;;;;;5074637;28;20259;-44
2023/01/15 04:09:23;;;;;;;4.97;1.00;;;6.40;99.90;;;;;;5074690;28;20175;-46
2023/01/15 04:11:49;;;;;;;3.97;0.77;;;6.40;99.90;;;;;;5074326;28;20200;-44
2023/01/15 04:14:14;;;;;;;7.23;1.50;;;6.40;99.90;;;;;;5074416;28;20262;-46
2023/01/15 04:16:40;;;;;;;7.10;1.37;;;6.40;99.90;;;;;;5074226;28;20265;-44
2023/01/15 04:19:05;;;;;;;1.70;0.63;;;6.40;99.90;;;;;;5056416;28;20176;-44
2023/01/15 04:21:31;;;;;;;6.10;0.77;;;6.50;99.90;;;;;;5074177;28;20671;-45
2023/01/15 04:23:57;;;;;;;4.60;0.93;;;6.50;99.90;;;;;;5074515;28;20668;-44
2023/01/15 04:26:23;;;;;;;5.43;1.27;;;6.50;99.90;;;;;;5074266;28;20294;-44
2023/01/15 04:28:48;;;;;;;3.73;0.93;;;6.40;99.90;;;;;;5074348;28;20274;-43
2023/01/15 04:31:14;;;;;;;9.00;1.07;;;6.40;99.90;;;;;;5074016;28;20185;-44
2023/01/15 04:33:40;;;;;;;6.80;0.90;;;6.40;99.90;;;;;;5074391;28;20199;-45
2023/01/15 04:36:07;;;;;;;10.07;1.20;;;6.50;99.90;;;;;;5074161;28;20207;-44
2023/01/15 04:38:33;;;;;;;7.27;1.57;;;6.50;99.90;;;;;;5073836;28;20214;-45
2023/01/15 04:44:05;;;;;;;4.17;1.00;;;6.50;99.90;;;;;;5074216;28;20190;-44
2023/01/15 04:46:32;;;;;;;5.70;1.50;;;6.50;99.90;;;;;;5073922;28;20209;-44
2023/01/15 04:48:58;;;;;;;8.97;1.10;;;6.60;99.90;;;;;;5074052;28;20183;-45
2023/01/15 04:51:23;;;;;;;4.00;1.30;;;6.60;99.90;;;;;;5073651;28;20255;-46
2023/01/15 04:53:49;;;;;;;7.07;1.43;;;6.50;99.90;;;;;;5074067;28;20191;-45
2023/01/15 04:56:15;;;;;;;5.83;1.17;;;6.60;99.90;;;;;;5073662;28;20207;-46
2023/01/15 04:58:40;;;;;;;5.70;0.93;;;6.60;99.90;;;;;;5073757;28;20178;-43
2023/01/15 05:01:16;;;;;;;5.20;0.87;;;6.60;99.90;;;;;;5073684;28;20180;-45
2023/01/15 05:03:42;;;;;;;10.07;1.50;;;6.60;99.90;;;;;;5074081;28;20183;-45
2023/01/15 05:06:09;;;;;;;7.67;1.30;;;6.60;99.90;;;;;;5055621;28;20207;-43
2023/01/15 05:08:35;;;;;;;5.43;1.07;;;6.60;99.90;;;;;;5073511;28;20222;-43
2023/01/15 05:11:06;;;;;;;6.27;1.17;;;6.60;99.90;;;;;;5055710;28;20561;-44
2023/01/15 05:13:32;;;;;;;6.33;0.70;;;6.50;99.90;;;;;;5056257;28;20164;-44
2023/01/15 05:16:08;;;;;;;5.43;0.80;;;6.50;99.90;;;;;;5073670;28;20256;-46
2023/01/15 05:18:34;;;;;;;9.33;1.30;;;6.60;99.90;;;;;;5073721;28;20220;-45
2023/01/15 05:21:00;;;;;;;6.77;1.10;;;6.50;99.90;;;;;;5074407;28;20272;-43
2023/01/15 05:23:25;;;;;;;4.47;0.80;;;6.60;99.90;;;;;;5073513;28;20223;-45
2023/01/15 05:25:51;;;;;;;8.67;1.07;;;6.60;99.90;;;;;;5073301;28;20664;-46
2023/01/15 05:28:18;;;;;;;1.80;0.67;;;6.60;99.90;;;;;;5073307;28;20595;-46
2023/01/15 05:30:44;;;;;;;2.87;0.97;;;6.50;99.90;;;;;;5073211;28;20183;-45
2023/01/15 05:33:09;;;;;;;2.67;0.70;;;6.50;99.90;;;;;;5073197;28;20206;-45
2023/01/15 05:35:35;;;;;;;2.87;0.57;;;6.50;99.90;;;;;;5073166;28;20206;-46
2023/01/15 05:38:02;;;;;;;2.97;0.80;;;6.50;99.90;;;;;;5073177;28;20209;-45
2023/01/15 05:40:28;;;;;;;1.77;0.80;;;6.50;99.90;;;;;;5073063;28;20186;-45
2023/01/15 05:42:53;;;;;;;5.60;1.20;;;6.50;99.90;;;;;;5055187;28;20199;-45
2023/01/15 05:45:19;;;;;;;2.87;0.70;;;6.50;99.90;;;;;;5073823;28;20186;-45
2023/01/15 05:47:44;;;;;;;4.73;1.00;;;6.50;99.90;;;;;;5073221;28;20651;-46
2023/01/15 05:50:11;;;;;;;5.03;1.13;;;6.50;99.90;;;;;;5073460;28;20198;-44
2023/01/15 05:52:36;;;;;;;1.73;0.60;;;6.50;99.90;;;;;;5055325;28;20297;-43
2023/01/15 05:55:02;;;;;;;4.53;0.73;;;6.40;99.90;;;;;;5073061;28;20229;-42
2023/01/15 05:57:28;;;;;;;4.73;1.20;;;6.40;99.90;;;;;;5072958;28;20203;-46
2023/01/15 05:59:54;;;;;;;4.90;0.90;;;6.40;99.90;;;;;;5072937;28;20191;-43
2023/01/15 06:02:19;;;;;;;5.37;1.10;;;6.40;99.90;;;;;;5072844;28;20207;-43
2023/01/15 06:04:45;;;;;;;4.40;0.93;;;6.40;99.90;;;;;;5073495;28;20187;-43
2023/01/15 06:07:10;;;;;;;3.33;1.10;;;6.40;99.90;;;;;;5072896;28;20270;-43
2023/01/15 06:09:36;;;;;;;6.23;0.93;;;6.40;99.90;;;;;;5073135;28;20241;-45
2023/01/15 06:12:02;;;;;;;1.20;0.57;;;6.40;99.90;;;;;;5072811;28;20675;-43
2023/01/15 06:14:27;;;;;;;8.07;1.00;;;6.40;99.90;;;;;;5075788;28;20192;-45
2023/01/15 06:16:53;;;;;;;3.30;0.60;;;6.40;99.90;;;;;;5076826;28;20681;-45
2023/01/15 06:19:19;;;;;;;3.43;0.77;;;6.50;99.90;;;;;;5076666;28;20711;-45
2023/01/15 06:21:44;;;;;;;10.33;1.10;;;6.40;99.90;;;;;;5076683;28;20206;-43
2023/01/15 06:24:10;;;;;;;5.17;1.33;;;6.40;99.90;;;;;;5076507;28;20703;-45
2023/01/15 06:26:38;;;;;;;7.50;1.10;;;6.40;99.90;;;;;;5076540;28;20219;-45
2023/01/15 06:29:03;;;;;;;6.70;1.40;;;6.40;99.90;;;;;;5076629;28;20643;-43
2023/01/15 06:31:29;;;;;;;4.63;0.80;;;6.40;99.90;;;;;;5076839;28;20206;-43
2023/01/15 06:33:55;;;;;;;8.33;1.23;;;6.40;99.90;;;;;;5077060;28;20605;-45
2023/01/15 06:36:22;;;;;;;2.43;0.67;;;6.40;99.90;;;;;;5078235;28;20333;-42
2023/01/15 06:38:48;;;;;;;1.07;0.60;;;6.40;99.90;;;;;;5090197;28;20174;-45
2023/01/15 06:49:33;;;;;;;5.77;0.80;;;6.40;99.90;;;;;;5076805;28;20557;-44
2023/01/15 06:51:59;;;;;;;3.57;0.77;;;6.40;99.90;;;;;;5076177;28;20367;-45
2023/01/15 06:54:24;;;;;;;4.50;0.80;;;6.40;99.90;;;;;;5075885;28;20266;-44
2023/01/15 06:56:50;;;;;;;2.53;0.90;;;6.40;99.90;;;;;;5075794;28;20571;-43
2023/01/15 06:59:16;;;;;;;1.93;0.83;;;6.40;99.90;;;;;;5075820;28;20179;-45
2023/01/15 07:01:42;;;;;;;1.90;0.70;;;6.40;99.90;;;;;;5075602;28;20279;-44
2023/01/15 07:04:07;;;;;;;3.33;1.00;;;6.40;99.90;;;;;;5076074;28;20214;-45
2023/01/15 07:06:33;;;;;;;5.37;1.03;;;6.40;99.90;;;;;;5075850;28;20183;-44
2023/01/15 07:08:59;;;;;;;5.63;1.30;;;6.40;99.90;;;;;;5076257;28;20190;-43
2023/01/15 07:11:24;;;;;;;3.43;0.83;;;6.40;99.90;;;;;;5057779;28;20603;-45
2023/01/15 07:13:50;;;;;;;6.47;1.00;;;6.30;99.90;;;;;;5075722;28;20661;-47
2023/01/15 07:16:28;;;;;;;2.47;0.63;;;6.30;99.90;;;;;;5075832;28;20257;-44
2023/01/15 07:18:54;;;;;;;5.07;0.77;;;6.40;99.90;;;;;;5075935;28;20245;-44
2023/01/15 07:21:20;;;;;;;5.87;1.17;;;6.30;99.90;;;;;;5075694;28;20223;-46
2023/01/15 07:23:45;;;;;;;3.57;0.83;;;6.30;99.90;;;;;;5075404;28;20174;-45
2023/01/15 07:26:11;;;;;;;4.67;0.80;;;6.30;99.90;;;;;;5075334;28;20545;-45
2023/01/15 07:28:36;;;;;;;4.17;1.23;;;6.30;99.90;;;;;;5075279;28;20183;-43
2023/01/15 07:31:02;;;;;;;1.93;0.90;;;6.30;99.90;;;;;;5075497;28;20235;-45
2023/01/15 07:33:28;;;;;;;2.97;0.80;;;6.30;99.90;;;;;;5075418;28;20655;-46
2023/01/15 07:35:54;;;;;;;0.60;0.50;;;6.30;99.90;;;;;;5075184;28;20218;-44
2023/01/15 07:38:19;;;;;;;3.50;0.83;;;6.30;99.90;;;;;;5075142;28;20655;-44
2023/01/15 07:49:44;;;;;;;5.90;1.00;;;6.30;99.90;;;;;;5075038;28;20194;-47
2023/01/15 07:51:42;;;;;;;5.87;0.90;;;6.30;99.90;;;;;;5075184;28;20279;-45
2023/01/15 07:54:08;;;;;;;5.17;0.73;;;6.20;99.90;;;;;;5075189;28;20191;-46
2023/01/15 07:56:33;;;;;;;0.90;0.60;;;6.20;99.90;;;;;;5074907;28;20302;-44
2023/01/15 07:58:59;;;;;;;2.67;0.73;;;6.10;99.90;;;;;;5074812;28;20198;-45
2023/01/15 08:01:24;;;;;;;5.10;0.50;;;6.10;99.90;;;;;;5056924;28;20186;-46
2023/01/15 08:03:50;;;;;;;4.57;1.53;;;6.10;99.90;;;;;;5075059;28;20521;-43
2023/01/15 08:06:15;;;;;;;0.83;0.43;;;6.10;99.90;;;;;;5074755;28;20186;-44
2023/01/15 08:08:41;;;;;;;1.27;0.47;;;6.00;99.90;;;;;;5075020;28;20291;-44
2023/01/15 08:16:35;;;;;;;0.50;0.33;;;5.90;99.90;;;;;;5074275;28;20202;-43
2023/01/15 08:19:01;;;;;;;2.30;0.40;;;5.80;99.90;;;;;;5074435;28;20167;-44
2023/01/15 08:21:27;;;;;;;0.67;0.43;;;5.80;99.90;;;;;;5074358;28;20228;-43
2023/01/15 08:23:53;;;;;;;1.47;0.40;;;5.80;99.90;;;;;;5074440;28;20607;-43
2023/01/15 08:26:18;;;;;;;1.23;0.57;;;5.70;99.90;;;;;;5074324;28;20187;-43
2023/01/15 08:28:44;;;;;;;1.53;0.90;;;5.70;99.90;;;;;;5074076;28;20211;-43
2023/01/15 08:31:09;;;;;;;1.90;0.60;;;5.70;99.90;;;;;;5073889;28;20617;-45
2023/01/15 08:33:35;;;;;;;4.67;0.50;;;5.60;99.90;;;;;;5073913;28;20589;-45
2023/01/15 08:36:01;;;;;;;1.27;0.57;;;5.60;99.90;;;;;;5073076;28;20257;-44
2023/01/15 08:38:26;;;;;;;7.27;0.60;;;5.70;99.90;;;;;;5055846;28;20186;-45
2023/01/15 08:40:59;;;;;;;1.80;0.70;;;5.60;99.90;;;;;;5073696;28;20179;-44
2023/01/15 08:43:29;;;;;;;3.97;1.00;;;5.60;99.90;;;;;;5073892;28;20204;-45
2023/01/15 08:46:00;;;;;;;1.60;0.70;;;5.60;99.90;;;;;;5073883;28;20210;-46
2023/01/15 08:48:27;;;;;;;1.90;1.10;;;5.60;99.90;;;;;;5073701;28;20175;-45
2023/01/15 08:50:53;;;;;;;2.53;0.50;;;5.60;99.90;;;;;;5073490;28;20195;-45
2023/01/15 08:53:19;;;;;;;3.33;0.90;;;5.60;99.90;;;;;;5073510;28;20551;-43
2023/01/15 08:55:46;;;;;;;2.83;1.33;;;5.60;99.90;;;;;;5073768;28;20238;-44
2023/01/15 08:58:12;;;;;;;7.73;1.00;;;5.60;99.90;;;;;;5073929;28;20233;-44
2023/01/15 09:00:37;;;;;;;5.27;0.87;;;5.60;99.90;;;;;;5073530;28;20550;-44
2023/01/15 09:03:03;;;;;;;1.83;0.63;;;5.60;99.90;;;;;;5073789;28;20618;-46
2023/01/15 09:05:29;;;;;;;12.13;0.93;;;5.60;99.90;;;;;;5073682;28;20207;-45
2023/01/15 09:07:55;;;;;;;5.27;1.07;;;5.60;99.90;;;;;;5073404;28;20172;-45
2023/01/15 09:10:21;;;;;;;2.93;1.13;;;5.60;99.90;;;;;;5073656;28;20175;-45
2023/01/15 09:12:47;;;;;;;2.20;0.80;;;5.70;99.90;;;;;;5055553;28;20741;-46
2023/01/15 09:15:13;;;;;;;4.67;0.63;;;5.60;99.90;;;;;;5055439;28;20205;-43
2023/01/15 09:17:39;;;;;;;6.23;2.30;;;5.70;99.90;;;;;;5055686;28;20201;-43
2023/01/15 09:20:08;;;;;;;8.83;1.40;;;5.70;99.90;;;;;;5073404;28;20234;-44
2023/01/15 09:22:34;;;;;;;5.93;1.10;;;5.70;99.90;;;;;;5073367;28;20200;-43
2023/01/15 09:24:59;;;;;;;9.60;1.27;;;5.80;99.90;;;;;;5073386;28;20182;-45
2023/01/15 09:27:26;;;;;;;5.40;1.20;;;5.90;99.90;;;;;;5038880;28;20277;-45
2023/01/15 09:29:52;;;;;;;5.73;1.00;;;6.00;99.90;;;;;;5073336;28;20209;-43
2023/01/15 09:32:18;;;;;;;5.73;1.10;;;6.00;99.90;;;;;;5073281;28;20279;-45
2023/01/15 09:34:50;;;;;;;5.43;1.10;;;6.00;99.90;;;;;;5074506;28;20217;-46
2023/01/15 09:37:15;;;;;;;4.90;1.00;;;6.00;99.90;;;;;;5073274;28;20265;-47
2023/01/15 09:39:41;;;;;;;6.03;0.90;;;6.00;99.90;;;;;;5073522;28;20182;-43
2023/01/15 09:42:45;;;;;;;6.13;1.20;;;6.10;99.90;;;;;;5073385;28;20741;-45
2023/01/15 09:45:52;;;;;;;1.47;0.67;;;6.20;99.90;;;;;;5074301;28;20190;-46
2023/01/15 09:48:29;;;;;;;7.43;1.00;;;6.30;99.90;;;;;;4983910;28;20277;-45
2023/01/15 09:51:33;;;;;;;9.07;1.33;;;6.40;99.90;;;;;;5072239;28;20211;-45
2023/01/15 09:54:17;;;;;;;2.90;0.83;;;6.50;99.90;;;;;;5060432;28;20559;-45
2023/01/15 09:56:44;;;;;;;1.80;0.50;;;6.60;99.90;;;;;;5059151;28;20209;-44
2023/01/15 09:59:41;;;;;;;5.80;1.10;;;6.60;99.90;;;;;;5077215;28;20186;-47
2023/01/15 10:02:50;;;;;;;4.07;0.87;;;6.70;99.90;;;;;;5077205;28;20198;-45
2023/01/15 10:05:56;;;;;;;5.80;0.80;;;6.70;99.90;;;;;;5055434;28;20320;-45
2023/01/15 10:08:27;;;;;;;5.63;1.50;;;6.80;99.90;;;;;;5010891;28;20187;-45
2023/01/15 10:11:14;;;;;;;4.87;1.03;;;6.80;99.90;;;;;;5077064;28;20178;-45
2023/01/15 10:13:48;;;;;;;3.33;1.27;;;6.80;99.90;;;;;;5058728;28;20179;-46
2023/01/15 10:16:26;;;;;;;4.80;1.50;;;6.90;99.90;;;;;;5077335;28;20293;-46
2023/01/15 10:18:53;;;;;;;6.33;1.47;;;6.90;99.90;;;;;;5059515;28;20225;-44
2023/01/15 10:21:21;;;;;;;3.43;1.17;;;6.90;99.90;;;;;;5076449;28;20179;-44
2023/01/15 10:24:12;;;;;;;6.97;1.60;;;6.90;99.90;;;;;;5076914;28;20187;-46
2023/01/15 10:26:39;;;;;;;3.07;0.87;;;6.90;99.90;;;;;;5076737;28;20653;-44
2023/01/15 10:29:22;;;;;;;8.27;2.47;;;6.90;99.90;;;;;;5059275;28;20178;-44
2023/01/15 10:31:52;;;;;;;5.70;1.67;;;6.90;99.90;;;;;;5076356;28;20219;-46
2023/01/15 10:35:26;;;;;;;6.00;2.47;;;6.90;99.90;;;;;;5076612;28;20658;-46
2023/01/15 10:38:17;;;;;;;5.77;1.70;;;7.00;99.90;;;;;;4958260;28;20211;-45
2023/01/15 10:41:03;;;;;;;7.20;1.70;;;6.90;99.90;;;;;;4959241;28;20191;-44
2023/01/15 10:44:10;;;;;;;6.87;2.10;;;7.00;99.90;;;;;;5074003;28;20227;-45
2023/01/15 10:46:39;;;;;;;8.40;1.77;;;7.00;99.90;;;;;;5075969;28;20237;-45
2023/01/15 10:49:14;;;;;;;6.60;1.57;;;7.10;99.90;;;;;;5076060;28;20190;-46
2023/01/15 10:51:55;;;;;;;3.13;1.00;;;7.10;99.90;;;;;;5075781;28;20694;-46
2023/01/15 10:54:39;;;;;;;8.87;1.10;;;7.20;99.90;;;;;;5076240;28;20163;-45
2023/01/15 10:57:23;;;;;;;4.43;1.20;;;7.30;99.90;;;;;;5076012;28;20192;-45
2023/01/15 10:59:57;;;;;;;4.17;1.07;;;7.40;99.90;;;;;;5075598;28;20245;-45
2023/01/15 11:02:46;;;;;;;2.13;1.00;;;7.40;99.90;;;;;;5075803;28;20625;-45
2023/01/15 11:05:15;;;;;;;7.73;1.50;;;7.30;99.90;;;;;;5075715;28;20164;-43
2023/01/15 11:07:47;;;;;;;7.70;1.33;;;7.40;99.90;;;;;;5075913;28;20183;-46
2023/01/15 11:10:15;;;;;;;5.10;1.73;;;7.30;99.90;;;;;;5075701;28;20206;-44
2023/01/15 11:21:18;;;;;;;2.83;0.90;;;7.30;99.90;;;;;;5075948;28;20218;-45
2023/01/15 11:23:44;;;;;;;6.83;0.97;;;7.30;99.90;;;;;;5075497;28;20260;-44
2023/01/15 11:26:19;;;;;;;3.77;1.37;;;7.20;99.90;;;;;;5075404;28;20230;-45
2023/01/15 11:28:46;;;;;;;7.20;1.20;;;7.30;99.90;;;;;;5075336;28;20186;-45
2023/01/15 11:31:13;;;;;;;1.07;0.80;;;7.20;99.90;;;;;;5075250;28;20192;-44
2023/01/15 11:33:39;;;;;;;3.27;1.30;;;7.30;99.90;;;;;;5075636;28;20551;-45
2023/01/15 11:36:21;;;;;;;5.97;0.87;;;7.30;99.90;;;;;;5075439;28;20678;-44
2023/01/15 11:38:49;;;;;;;1.40;0.77;;;7.30;99.90;;;;;;5075447;28;20202;-45
2023/01/15 11:52:46;;;;;;;2.30;0.77;;;7.40;99.90;;;;;;5079866;28;20618;-46
2023/01/15 11:55:16;;;;;;;2.03;0.80;;;7.40;99.90;;;;;;5074857;28;20173;-45
2023/01/15 11:57:43;;;;;;;4.97;1.13;;;7.40;99.90;;;;;;5075290;28;20209;-44
2023/01/15 12:00:22;;;;;;;10.30;1.10;;;7.40;99.90;;;;;;5074739;28;20190;-46
2023/01/15 12:02:51;;;;;;;3.00;0.80;;;7.40;99.90;;;;;;5074610;28;20272;-46
2023/01/15 12:05:19;;;;;;;4.33;1.17;;;7.50;99.90;;;;;;5074963;28;20191;-45
2023/01/15 12:07:48;;;;;;;2.13;0.90;;;7.50;99.90;;;;;;5056647;28;20195;-47
2023/01/15 12:13:33;;;;;;;8.30;1.20;;;7.50;99.90;;;;;;5074554;28;20568;-47
2023/01/15 12:16:06;;;;;;;8.37;1.53;;;7.60;99.90;;;;;;5074312;28;20550;-46
2023/01/15 12:19:07;;;;;;;4.90;1.20;;;7.60;99.90;;;;;;5074808;28;20613;-46
2023/01/15 12:21:46;;;;;;;1.63;0.60;;;7.70;99.90;;;;;;5074510;28;20618;-48
2023/01/15 12:24:42;;;;;;;4.17;0.83;;;7.70;99.90;;;;;;5074356;28;20539;-47
2023/01/15 12:27:32;;;;;;;2.00;0.60;;;7.70;99.90;;;;;;5074302;28;20164;-47
2023/01/15 12:30:27;;;;;;;2.43;0.53;;;7.70;99.90;;;;;;5074610;28;20689;-47
2023/01/15 12:33:19;;;;;;;1.80;0.57;;;7.70;99.90;;;;;;5070739;28;20612;-45
2023/01/15 12:36:07;;;;;;;4.13;0.90;;;7.70;99.90;;;;;;5071050;28;20172;-44
2023/01/15 12:38:57;;;;;;;1.57;0.50;;;7.70;99.90;;;;;;5071145;28;20573;-47
2023/01/15 12:44:59;;;;;;;4.23;1.07;;;7.70;99.90;;;;;;5071181;28;20250;-45
2023/01/15 12:47:13;;;;;;;4.23;0.90;;;7.70;99.90;;;;;;5070990;28;20799;-45
2023/01/15 12:49:53;;;;;;;3.53;0.90;;;7.80;99.90;;;;;;5071332;28;20193;-45
2023/01/15 12:52:25;;;;;;;0.90;0.53;;;7.70;99.90;;;;;;5070756;28;20573;-46
2023/01/15 12:55:09;;;;;;;1.83;0.60;;;7.80;99.90;;;;;;5070889;28;20232;-45
2023/01/15 12:57:39;;;;;;;5.40;0.80;;;7.90;99.90;;;;;;5070722;28;20166;-45
2023/01/15 13:00:22;;;;;;;4.47;0.70;;;7.90;99.90;;;;;;5071356;28;20321;-47
2023/01/15 13:03:12;;;;;;;1.80;0.63;;;8.00;99.90;;;;;;5084749;28;20205;-46
2023/01/15 13:05:59;;;;;;;2.77;0.70;;;8.00;99.90;;;;;;5084268;28;20165;-46
2023/01/15 13:08:36;;;;;;;4.20;0.73;;;8.00;99.90;;;;;;5053865;28;20704;-46
2023/01/15 13:11:02;;;;;;;3.70;1.00;;;8.10;99.90;;;;;;5070504;28;20187;-45
2023/01/15 13:13:35;;;;;;;4.93;0.90;;;8.00;99.90;;;;;;5070963;28;20253;-45
2023/01/15 13:16:10;;;;;;;2.07;1.00;;;8.00;99.90;;;;;;5068806;28;20648;-46
2023/01/15 13:19:08;;;;;;;1.73;0.77;;;8.00;99.90;;;;;;5068726;28;20177;-45
2023/01/15 13:21:37;;;;;;;4.70;0.80;;;8.00;99.90;;;;;;5062743;28;20214;-46
2023/01/15 13:24:21;;;;;;;4.10;1.03;;;8.00;99.90;;;;;;5069853;28;20224;-46
2023/01/15 13:27:02;;;;;;;1.10;0.77;;;8.00;99.90;;;;;;5069985;28;20160;-44
2023/01/15 13:29:57;;;;;;;1.80;0.80;;;7.90;99.90;;;;;;5069986;28;20222;-47
2023/01/15 13:32:27;;;;;;;4.63;1.00;;;7.90;99.90;;;;;;5069995;28;20570;-45
2023/01/15 13:35:30;;;;;;;2.37;1.03;;;7.80;99.90;;;;;;5071560;28;20176;-46
2023/01/15 13:37:58;;;;;;;5.50;1.20;;;7.80;99.90;;;;;;5069751;28;20236;-46
2023/01/15 13:43:46;;;;;;;4.93;0.70;;;7.70;99.90;;;;;;5062053;28;20172;-47
2023/01/15 13:46:18;;;;;;;2.37;1.03;;;7.70;99.90;;;;;;5056531;28;20188;-46
2023/01/15 13:48:47;;;;;;;1.93;0.90;;;7.70;99.90;;;;;;5056422;28;20536;-45
2023/01/15 13:51:42;;;;;;;3.23;0.70;;;7.60;99.90;;;;;;5056254;28;20202;-46
2023/01/15 13:54:18;;;;;;;2.60;0.77;;;7.70;99.90;;;;;;5054012;28;20198;-46
2023/01/15 13:56:44;;;;;;;2.60;1.00;;;7.60;99.90;;;;;;5055974;28;20220;-46
2023/01/15 13:59:42;;;;;;;3.93;0.90;;;7.60;99.90;;;;;;5056218;28;20599;-46
2023/01/15 14:02:35;;;;;;;2.57;1.00;;;7.60;99.90;;;;;;5056018;28;20196;-46
2023/01/15 14:05:32;;;;;;;3.47;0.93;;;7.70;99.90;;;;;;5056090;28;20293;-44
2023/01/15 14:08:00;;;;;;;2.90;1.10;;;7.60;99.90;;;;;;5054064;28;20559;-46
2023/01/15 14:10:35;;;;;;;2.13;0.87;;;7.60;99.90;;;;;;5055934;28;20187;-47
2023/01/15 14:13:46;;;;;;;4.17;0.93;;;7.60;99.90;;;;;;5055584;28;20200;-45
2023/01/15 14:16:35;;;;;;;4.33;1.03;;;7.60;99.90;;;;;;5056005;28;20174;-47
2023/01/15 14:19:27;;;;;;;2.03;0.57;;;7.60;99.90;;;;;;5055909;28;20623;-46
2023/01/15 14:22:01;;;;;;;2.90;0.80;;;7.60;99.90;;;;;;5055708;28;20191;-46
2023/01/15 14:24:51;;;;;;;5.10;0.70;;;7.50;99.90;;;;;;5055621;28;20178;-45